sensor_id;sensor_type;location;lat;lon;timestamp;P1;durP1;ratioP1;P2;durP2;ratioP2
71462;SDS011;59266;52.608;13.260;2023-08-06T00:01:54;14.32;;;5.40;;
71462;SDS011;59266;52.608;13.260;2023-08-06T00:04:21;12.23;;;5.20;;
71462;SDS011;59266;52.608;13.260;2023-08-06T00:06:47;12.40;;;5.47;;
71462;SDS011;59266;52.608;13.260;2023-08-06T00:09:14;13.30;;;5.80;;
71462;SDS011;59266;52.608;13.260;2023-08-06T00:11:41;13.80;;;5.60;;
71462;SDS011;59266;52.608;13.260;2023-08-06T00:14:10;14.93;;;6.78;;
71462;SDS011;59266;52.608;13.260;2023-08-06T00:16:36;13.80;;;5.18;;
71462;SDS011;59266;52.608;13.260;2023-08-06T00:19:03;10.20;;;5.20;;
71462;SDS011;59266;52.608;13.260;2023-08-06T00:21:30;14.35;;;5.72;;
71462;SDS011;59266;52.608;13.260;2023-08-06T00:23:56;11.13;;;6.30;;
71462;SDS011;59266;52.608;13.260;2023-08-06T00:26:23;11.63;;;6.43;;
71462;SDS011;59266;52.608;13.260;2023-08-06T00:28:51;15.95;;;7.63;;
71462;SDS011;59266;52.608;13.260;2023-08-06T00:31:17;14.38;;;6.85;;
71462;SDS011;59266;52.608;13.260;2023-08-06T00:33:44;13.65;;;6.82;;
71462;SDS011;59266;52.608;13.260;2023-08-06T00:36:11;17.23;;;6.82;;
71462;SDS011;59266;52.608;13.260;2023-08-06T00:38:37;12.50;;;6.25;;
71462;SDS011;59266;52.608;13.260;2023-08-06T00:41:04;10.85;;;6.20;;
71462;SDS011;59266;52.608;13.260;2023-08-06T00:43:30;12.98;;;6.40;;
71462;SDS011;59266;52.608;13.260;2023-08-06T00:45:57;13.75;;;6.15;;
71462;SDS011;59266;52.608;13.260;2023-08-06T00:48:24;11.68;;;5.93;;
71462;SDS011;59266;52.608;13.260;2023-08-06T00:50:51;11.50;;;6.15;;
71462;SDS011;59266;52.608;13.260;2023-08-06T00:53:17;11.25;;;6.05;;
71462;SDS011;59266;52.608;13.260;2023-08-06T00:55:44;13.38;;;6.97;;
71462;SDS011;59266;52.608;13.260;2023-08-06T00:58:12;13.13;;;6.32;;
71462;SDS011;59266;52.608;13.260;2023-08-06T01:00:40;17.10;;;6.85;;
71462;SDS011;59266;52.608;13.260;2023-08-06T01:03:06;14.23;;;7.00;;
71462;SDS011;59266;52.608;13.260;2023-08-06T01:05:33;15.55;;;6.32;;
71462;SDS011;59266;52.608;13.260;2023-08-06T01:08:12;14.68;;;5.80;;
71462;SDS011;59266;52.608;13.260;2023-08-06T01:11:14;13.20;;;5.68;;
71462;SDS011;59266;52.608;13.260;2023-08-06T01:13:48;11.88;;;5.97;;
71462;SDS011;59266;52.608;13.260;2023-08-06T01:16:20;15.48;;;6.25;;
71462;SDS011;59266;52.608;13.260;2023-08-06T01:18:48;17.30;;;6.75;;
71462;SDS011;59266;52.608;13.260;2023-08-06T01:21:18;14.93;;;6.45;;
71462;SDS011;59266;52.608;13.260;2023-08-06T01:23:45;13.85;;;6.22;;
71462;SDS011;59266;52.608;13.260;2023-08-06T01:26:15;13.18;;;5.80;;
71462;SDS011;59266;52.608;13.260;2023-08-06T01:28:59;11.32;;;6.05;;
71462;SDS011;59266;52.608;13.260;2023-08-06T01:31:48;13.82;;;6.95;;
71462;SDS011;59266;52.608;13.260;2023-08-06T01:34:17;12.75;;;6.22;;
71462;SDS011;59266;52.608;13.260;2023-08-06T01:36:54;15.25;;;6.30;;
71462;SDS011;59266;52.608;13.260;2023-08-06T01:39:21;13.90;;;6.32;;
71462;SDS011;59266;52.608;13.260;2023-08-06T01:41:51;13.35;;;6.63;;
71462;SDS011;59266;52.608;13.260;2023-08-06T01:44:18;14.85;;;6.68;;
71462;SDS011;59266;52.608;13.260;2023-08-06T01:46:44;14.15;;;6.43;;
71462;SDS011;59266;52.608;13.260;2023-08-06T01:49:11;16.42;;;6.82;;
71462;SDS011;59266;52.608;13.260;2023-08-06T01:51:38;11.75;;;6.20;;
71462;SDS011;59266;52.608;13.260;2023-08-06T01:54:04;17.92;;;6.82;;
71462;SDS011;59266;52.608;13.260;2023-08-06T01:56:31;17.13;;;6.78;;
71462;SDS011;59266;52.608;13.260;2023-08-06T01:58:58;12.82;;;6.63;;
71462;SDS011;59266;52.608;13.260;2023-08-06T02:01:24;14.63;;;7.25;;
71462;SDS011;59266;52.608;13.260;2023-08-06T02:03:51;14.18;;;7.40;;
71462;SDS011;59266;52.608;13.260;2023-08-06T02:06:17;15.93;;;7.35;;
71462;SDS011;59266;52.608;13.260;2023-08-06T02:08:44;16.15;;;7.53;;
71462;SDS011;59266;52.608;13.260;2023-08-06T02:11:10;14.65;;;7.85;;
71462;SDS011;59266;52.608;13.260;2023-08-06T02:13:37;15.18;;;7.18;;
71462;SDS011;59266;52.608;13.260;2023-08-06T02:16:03;14.30;;;6.90;;
71462;SDS011;59266;52.608;13.260;2023-08-06T02:18:34;13.52;;;7.05;;
71462;SDS011;59266;52.608;13.260;2023-08-06T02:21:00;17.88;;;7.78;;
71462;SDS011;59266;52.608;13.260;2023-08-06T02:23:27;12.85;;;7.03;;
71462;SDS011;59266;52.608;13.260;2023-08-06T02:26:00;16.73;;;7.45;;
71462;SDS011;59266;52.608;13.260;2023-08-06T02:28:28;12.30;;;7.05;;
71462;SDS011;59266;52.608;13.260;2023-08-06T02:30:55;19.17;;;7.43;;
71462;SDS011;59266;52.608;13.260;2023-08-06T02:33:22;14.73;;;7.18;;
71462;SDS011;59266;52.608;13.260;2023-08-06T02:35:49;19.17;;;7.80;;
71462;SDS011;59266;52.608;13.260;2023-08-06T02:38:16;15.55;;;7.55;;
71462;SDS011;59266;52.608;13.260;2023-08-06T02:40:45;13.93;;;8.18;;
71462;SDS011;59266;52.608;13.260;2023-08-06T02:43:13;13.65;;;7.47;;
71462;SDS011;59266;52.608;13.260;2023-08-06T02:45:39;15.98;;;7.30;;
71462;SDS011;59266;52.608;13.260;2023-08-06T02:48:06;14.68;;;7.90;;
71462;SDS011;59266;52.608;13.260;2023-08-06T02:50:39;12.40;;;7.05;;
71462;SDS011;59266;52.608;13.260;2023-08-06T02:53:07;14.32;;;8.23;;
71462;SDS011;59266;52.608;13.260;2023-08-06T02:55:34;15.15;;;7.82;;
71462;SDS011;59266;52.608;13.260;2023-08-06T02:58:01;14.15;;;7.72;;
71462;SDS011;59266;52.608;13.260;2023-08-06T03:00:28;15.77;;;7.70;;
71462;SDS011;59266;52.608;13.260;2023-08-06T03:02:55;13.60;;;6.95;;
71462;SDS011;59266;52.608;13.260;2023-08-06T03:05:21;15.63;;;8.30;;
71462;SDS011;59266;52.608;13.260;2023-08-06T03:07:48;14.07;;;7.07;;
71462;SDS011;59266;52.608;13.260;2023-08-06T03:10:14;16.05;;;8.80;;
71462;SDS011;59266;52.608;13.260;2023-08-06T03:12:41;13.27;;;7.95;;
71462;SDS011;59266;52.608;13.260;2023-08-06T03:15:08;14.43;;;8.35;;
71462;SDS011;59266;52.608;13.260;2023-08-06T03:17:35;16.73;;;8.48;;
71462;SDS011;59266;52.608;13.260;2023-08-06T03:20:02;12.95;;;7.45;;
71462;SDS011;59266;52.608;13.260;2023-08-06T03:22:29;13.10;;;8.38;;
71462;SDS011;59266;52.608;13.260;2023-08-06T03:24:55;14.68;;;7.90;;
71462;SDS011;59266;52.608;13.260;2023-08-06T03:27:22;14.02;;;7.60;;
71462;SDS011;59266;52.608;13.260;2023-08-06T03:29:51;16.23;;;8.55;;
71462;SDS011;59266;52.608;13.260;2023-08-06T03:32:17;15.20;;;8.40;;
71462;SDS011;59266;52.608;13.260;2023-08-06T03:34:44;13.32;;;7.50;;
71462;SDS011;59266;52.608;13.260;2023-08-06T03:37:11;15.35;;;8.48;;
71462;SDS011;59266;52.608;13.260;2023-08-06T03:39:37;16.58;;;8.70;;
71462;SDS011;59266;52.608;13.260;2023-08-06T03:42:04;15.57;;;7.38;;
71462;SDS011;59266;52.608;13.260;2023-08-06T03:44:31;14.55;;;8.13;;
71462;SDS011;59266;52.608;13.260;2023-08-06T03:46:57;12.63;;;7.55;;
71462;SDS011;59266;52.608;13.260;2023-08-06T03:49:24;14.07;;;7.25;;
71462;SDS011;59266;52.608;13.260;2023-08-06T03:51:50;14.80;;;7.82;;
71462;SDS011;59266;52.608;13.260;2023-08-06T03:54:17;13.63;;;7.50;;
71462;SDS011;59266;52.608;13.260;2023-08-06T03:56:44;15.68;;;8.18;;
71462;SDS011;59266;52.608;13.260;2023-08-06T03:59:11;13.90;;;7.78;;
71462;SDS011;59266;52.608;13.260;2023-08-06T04:01:38;15.30;;;9.18;;
71462;SDS011;59266;52.608;13.260;2023-08-06T04:04:04;13.80;;;6.97;;
71462;SDS011;59266;52.608;13.260;2023-08-06T04:06:31;15.88;;;8.15;;
71462;SDS011;59266;52.608;13.260;2023-08-06T04:09:00;13.40;;;8.45;;
71462;SDS011;59266;52.608;13.260;2023-08-06T04:11:27;15.18;;;7.63;;
71462;SDS011;59266;52.608;13.260;2023-08-06T04:13:53;14.63;;;8.35;;
71462;SDS011;59266;52.608;13.260;2023-08-06T04:16:21;16.92;;;8.93;;
71462;SDS011;59266;52.608;13.260;2023-08-06T04:18:48;15.00;;;8.25;;
71462;SDS011;59266;52.608;13.260;2023-08-06T04:21:15;13.70;;;7.80;;
71462;SDS011;59266;52.608;13.260;2023-08-06T04:23:41;15.90;;;8.13;;
71462;SDS011;59266;52.608;13.260;2023-08-06T04:26:08;11.48;;;7.25;;
71462;SDS011;59266;52.608;13.260;2023-08-06T04:28:34;14.93;;;8.05;;
71462;SDS011;59266;52.608;13.260;2023-08-06T04:31:01;15.45;;;7.93;;
71462;SDS011;59266;52.608;13.260;2023-08-06T04:33:28;14.73;;;7.70;;
71462;SDS011;59266;52.608;13.260;2023-08-06T04:35:54;13.40;;;8.45;;
71462;SDS011;59266;52.608;13.260;2023-08-06T04:38:24;14.63;;;8.88;;
71462;SDS011;59266;52.608;13.260;2023-08-06T04:40:53;13.02;;;7.20;;
71462;SDS011;59266;52.608;13.260;2023-08-06T04:43:20;13.60;;;8.27;;
71462;SDS011;59266;52.608;13.260;2023-08-06T04:45:50;12.90;;;7.47;;
71462;SDS011;59266;52.608;13.260;2023-08-06T04:48:19;14.57;;;8.35;;
71462;SDS011;59266;52.608;13.260;2023-08-06T04:50:46;18.88;;;9.20;;
71462;SDS011;59266;52.608;13.260;2023-08-06T04:53:14;14.00;;;8.13;;
71462;SDS011;59266;52.608;13.260;2023-08-06T04:55:42;16.00;;;7.93;;
71462;SDS011;59266;52.608;13.260;2023-08-06T04:58:09;15.13;;;7.75;;
71462;SDS011;59266;52.608;13.260;2023-08-06T05:00:36;18.15;;;8.80;;
71462;SDS011;59266;52.608;13.260;2023-08-06T05:03:03;13.68;;;8.45;;
71462;SDS011;59266;52.608;13.260;2023-08-06T05:05:30;14.18;;;8.00;;
71462;SDS011;59266;52.608;13.260;2023-08-06T05:07:56;15.05;;;8.60;;
71462;SDS011;59266;52.608;13.260;2023-08-06T05:10:27;17.90;;;8.25;;
71462;SDS011;59266;52.608;13.260;2023-08-06T05:12:53;14.73;;;8.07;;
71462;SDS011;59266;52.608;13.260;2023-08-06T05:15:20;15.57;;;8.88;;
71462;SDS011;59266;52.608;13.260;2023-08-06T05:17:47;13.27;;;7.93;;
71462;SDS011;59266;52.608;13.260;2023-08-06T05:20:13;12.98;;;8.20;;
71462;SDS011;59266;52.608;13.260;2023-08-06T05:22:40;14.15;;;7.43;;
71462;SDS011;59266;52.608;13.260;2023-08-06T05:25:06;15.63;;;8.27;;
71462;SDS011;59266;52.608;13.260;2023-08-06T05:27:33;15.30;;;8.00;;
71462;SDS011;59266;52.608;13.260;2023-08-06T05:30:02;17.25;;;8.25;;
71462;SDS011;59266;52.608;13.260;2023-08-06T05:32:28;16.25;;;8.20;;
71462;SDS011;59266;52.608;13.260;2023-08-06T05:34:55;14.48;;;8.50;;
71462;SDS011;59266;52.608;13.260;2023-08-06T05:37:22;12.68;;;8.07;;
71462;SDS011;59266;52.608;13.260;2023-08-06T05:39:48;13.15;;;7.93;;
71462;SDS011;59266;52.608;13.260;2023-08-06T05:42:15;13.82;;;7.95;;
71462;SDS011;59266;52.608;13.260;2023-08-06T05:44:42;13.13;;;7.40;;
71462;SDS011;59266;52.608;13.260;2023-08-06T05:47:09;14.00;;;8.32;;
71462;SDS011;59266;52.608;13.260;2023-08-06T05:49:36;14.25;;;7.93;;
71462;SDS011;59266;52.608;13.260;2023-08-06T05:52:03;12.88;;;7.80;;
71462;SDS011;59266;52.608;13.260;2023-08-06T05:54:32;13.18;;;7.53;;
71462;SDS011;59266;52.608;13.260;2023-08-06T05:57:02;12.82;;;7.63;;
71462;SDS011;59266;52.608;13.260;2023-08-06T05:59:28;12.30;;;7.45;;
71462;SDS011;59266;52.608;13.260;2023-08-06T06:01:55;12.20;;;7.28;;
71462;SDS011;59266;52.608;13.260;2023-08-06T06:04:21;12.95;;;7.43;;
71462;SDS011;59266;52.608;13.260;2023-08-06T06:06:48;13.60;;;7.57;;
71462;SDS011;59266;52.608;13.260;2023-08-06T06:09:15;14.50;;;7.97;;
71462;SDS011;59266;52.608;13.260;2023-08-06T06:11:42;13.45;;;7.32;;
71462;SDS011;59266;52.608;13.260;2023-08-06T06:14:08;11.80;;;7.40;;
71462;SDS011;59266;52.608;13.260;2023-08-06T06:16:35;15.35;;;8.00;;
71462;SDS011;59266;52.608;13.260;2023-08-06T06:19:02;12.68;;;7.53;;
71462;SDS011;59266;52.608;13.260;2023-08-06T06:21:28;14.27;;;7.90;;
71462;SDS011;59266;52.608;13.260;2023-08-06T06:23:55;15.05;;;7.70;;
71462;SDS011;59266;52.608;13.260;2023-08-06T06:26:22;12.73;;;7.65;;
71462;SDS011;59266;52.608;13.260;2023-08-06T06:28:49;12.05;;;6.95;;
71462;SDS011;59266;52.608;13.260;2023-08-06T06:31:16;12.80;;;7.55;;
71462;SDS011;59266;52.608;13.260;2023-08-06T06:33:42;14.07;;;8.45;;
71462;SDS011;59266;52.608;13.260;2023-08-06T06:36:09;12.95;;;7.38;;
71462;SDS011;59266;52.608;13.260;2023-08-06T06:38:36;11.57;;;7.32;;
71462;SDS011;59266;52.608;13.260;2023-08-06T06:41:04;12.55;;;7.80;;
71462;SDS011;59266;52.608;13.260;2023-08-06T06:43:30;15.52;;;7.32;;
71462;SDS011;59266;52.608;13.260;2023-08-06T06:45:59;14.43;;;7.05;;
71462;SDS011;59266;52.608;13.260;2023-08-06T06:48:27;10.60;;;6.90;;
71462;SDS011;59266;52.608;13.260;2023-08-06T06:50:54;11.93;;;6.85;;
71462;SDS011;59266;52.608;13.260;2023-08-06T06:53:21;10.75;;;6.53;;
71462;SDS011;59266;52.608;13.260;2023-08-06T06:55:54;13.80;;;7.40;;
71462;SDS011;59266;52.608;13.260;2023-08-06T07:00:58;11.73;;;6.75;;
71462;SDS011;59266;52.608;13.260;2023-08-06T07:03:24;11.73;;;6.43;;
71462;SDS011;59266;52.608;13.260;2023-08-06T07:05:51;11.10;;;6.32;;
71462;SDS011;59266;52.608;13.260;2023-08-06T07:08:17;11.98;;;7.57;;
71462;SDS011;59266;52.608;13.260;2023-08-06T07:10:44;11.30;;;6.90;;
71462;SDS011;59266;52.608;13.260;2023-08-06T07:13:11;10.75;;;6.53;;
71462;SDS011;59266;52.608;13.260;2023-08-06T07:15:38;11.38;;;6.55;;
71462;SDS011;59266;52.608;13.260;2023-08-06T07:18:04;10.80;;;6.90;;
71462;SDS011;59266;52.608;13.260;2023-08-06T07:20:31;11.73;;;7.20;;
71462;SDS011;59266;52.608;13.260;2023-08-06T07:22:59;12.20;;;7.60;;
71462;SDS011;59266;52.608;13.260;2023-08-06T07:25:26;11.60;;;7.00;;
71462;SDS011;59266;52.608;13.260;2023-08-06T07:27:53;9.85;;;6.35;;
71462;SDS011;59266;52.608;13.260;2023-08-06T07:30:21;12.50;;;7.40;;
71462;SDS011;59266;52.608;13.260;2023-08-06T07:32:47;11.27;;;6.85;;
71462;SDS011;59266;52.608;13.260;2023-08-06T07:35:14;11.07;;;6.82;;
71462;SDS011;59266;52.608;13.260;2023-08-06T07:37:41;12.50;;;6.07;;
71462;SDS011;59266;52.608;13.260;2023-08-06T07:40:08;10.63;;;6.95;;
71462;SDS011;59266;52.608;13.260;2023-08-06T07:42:35;11.48;;;7.38;;
71462;SDS011;59266;52.608;13.260;2023-08-06T07:45:02;11.35;;;6.75;;
71462;SDS011;59266;52.608;13.260;2023-08-06T07:47:30;11.40;;;6.72;;
71462;SDS011;59266;52.608;13.260;2023-08-06T07:49:56;11.80;;;6.85;;
71462;SDS011;59266;52.608;13.260;2023-08-06T07:52:23;12.45;;;7.60;;
71462;SDS011;59266;52.608;13.260;2023-08-06T07:54:50;10.55;;;6.88;;
71462;SDS011;59266;52.608;13.260;2023-08-06T07:57:16;11.73;;;7.30;;
71462;SDS011;59266;52.608;13.260;2023-08-06T07:59:43;11.60;;;6.63;;
71462;SDS011;59266;52.608;13.260;2023-08-06T08:02:10;10.77;;;6.82;;
71462;SDS011;59266;52.608;13.260;2023-08-06T08:04:37;9.93;;;6.75;;
71462;SDS011;59266;52.608;13.260;2023-08-06T08:07:06;11.65;;;7.18;;
71462;SDS011;59266;52.608;13.260;2023-08-06T08:09:34;13.45;;;7.47;;
71462;SDS011;59266;52.608;13.260;2023-08-06T08:12:01;12.82;;;7.65;;
71462;SDS011;59266;52.608;13.260;2023-08-06T08:14:29;10.00;;;6.75;;
71462;SDS011;59266;52.608;13.260;2023-08-06T08:16:59;12.65;;;7.43;;
71462;SDS011;59266;52.608;13.260;2023-08-06T08:19:26;12.55;;;7.53;;
71462;SDS011;59266;52.608;13.260;2023-08-06T08:21:54;12.00;;;6.93;;
71462;SDS011;59266;52.608;13.260;2023-08-06T08:24:21;11.35;;;7.45;;
71462;SDS011;59266;52.608;13.260;2023-08-06T08:26:50;11.88;;;7.50;;
71462;SDS011;59266;52.608;13.260;2023-08-06T08:29:18;13.18;;;7.85;;
71462;SDS011;59266;52.608;13.260;2023-08-06T08:31:46;14.13;;;8.02;;
71462;SDS011;59266;52.608;13.260;2023-08-06T08:34:18;12.48;;;7.80;;
71462;SDS011;59266;52.608;13.260;2023-08-06T08:36:46;12.98;;;8.45;;
71462;SDS011;59266;52.608;13.260;2023-08-06T08:39:13;11.68;;;7.90;;
71462;SDS011;59266;52.608;13.260;2023-08-06T08:41:40;12.18;;;8.20;;
71462;SDS011;59266;52.608;13.260;2023-08-06T08:44:09;13.95;;;8.30;;
71462;SDS011;59266;52.608;13.260;2023-08-06T08:46:40;14.75;;;8.60;;
71462;SDS011;59266;52.608;13.260;2023-08-06T08:49:07;13.18;;;8.88;;
71462;SDS011;59266;52.608;13.260;2023-08-06T08:51:34;12.25;;;7.75;;
71462;SDS011;59266;52.608;13.260;2023-08-06T08:54:02;14.55;;;8.50;;
71462;SDS011;59266;52.608;13.260;2023-08-06T08:56:30;14.02;;;8.55;;
71462;SDS011;59266;52.608;13.260;2023-08-06T08:58:58;13.40;;;8.52;;
71462;SDS011;59266;52.608;13.260;2023-08-06T09:01:25;13.93;;;9.00;;
71462;SDS011;59266;52.608;13.260;2023-08-06T09:03:54;15.13;;;8.60;;
71462;SDS011;59266;52.608;13.260;2023-08-06T09:06:22;13.18;;;8.95;;
71462;SDS011;59266;52.608;13.260;2023-08-06T09:08:56;12.00;;;8.68;;
71462;SDS011;59266;52.608;13.260;2023-08-06T09:11:28;15.73;;;9.63;;
71462;SDS011;59266;52.608;13.260;2023-08-06T09:14:05;12.57;;;9.02;;
71462;SDS011;59266;52.608;13.260;2023-08-06T09:16:36;12.90;;;9.05;;
71462;SDS011;59266;52.608;13.260;2023-08-06T09:19:07;13.75;;;8.32;;
71462;SDS011;59266;52.608;13.260;2023-08-06T09:21:39;12.50;;;8.15;;
71462;SDS011;59266;52.608;13.260;2023-08-06T09:24:12;11.98;;;7.85;;
71462;SDS011;59266;52.608;13.260;2023-08-06T09:26:41;13.65;;;8.80;;
71462;SDS011;59266;52.608;13.260;2023-08-06T09:29:09;13.07;;;8.90;;
71462;SDS011;59266;52.608;13.260;2023-08-06T09:31:42;12.65;;;8.98;;
71462;SDS011;59266;52.608;13.260;2023-08-06T09:34:17;14.68;;;8.68;;
71462;SDS011;59266;52.608;13.260;2023-08-06T09:36:48;12.98;;;8.35;;
71462;SDS011;59266;52.608;13.260;2023-08-06T09:39:29;13.38;;;9.00;;
71462;SDS011;59266;52.608;13.260;2023-08-06T09:41:57;12.80;;;8.18;;
71462;SDS011;59266;52.608;13.260;2023-08-06T09:44:26;15.02;;;8.80;;
71462;SDS011;59266;52.608;13.260;2023-08-06T09:46:57;13.98;;;9.27;;
71462;SDS011;59266;52.608;13.260;2023-08-06T09:49:25;16.55;;;9.10;;
71462;SDS011;59266;52.608;13.260;2023-08-06T09:51:58;14.63;;;8.82;;
71462;SDS011;59266;52.608;13.260;2023-08-06T09:54:26;15.02;;;9.55;;
71462;SDS011;59266;52.608;13.260;2023-08-06T09:56:55;13.55;;;9.32;;
71462;SDS011;59266;52.608;13.260;2023-08-06T09:59:24;14.18;;;9.70;;
71462;SDS011;59266;52.608;13.260;2023-08-06T10:01:51;13.63;;;9.15;;
71462;SDS011;59266;52.608;13.260;2023-08-06T10:04:20;14.68;;;9.15;;
71462;SDS011;59266;52.608;13.260;2023-08-06T10:06:50;14.05;;;9.45;;
71462;SDS011;59266;52.608;13.260;2023-08-06T10:09:17;15.52;;;9.93;;
71462;SDS011;59266;52.608;13.260;2023-08-06T10:11:47;15.57;;;9.75;;
71462;SDS011;59266;52.608;13.260;2023-08-06T10:14:22;14.55;;;9.63;;
71462;SDS011;59266;52.608;13.260;2023-08-06T10:16:53;14.98;;;9.35;;
71462;SDS011;59266;52.608;13.260;2023-08-06T10:19:23;18.75;;;9.95;;
71462;SDS011;59266;52.608;13.260;2023-08-06T10:24:56;14.13;;;8.80;;
71462;SDS011;59266;52.608;13.260;2023-08-06T10:30:23;14.43;;;9.05;;
71462;SDS011;59266;52.608;13.260;2023-08-06T10:32:54;15.52;;;9.38;;
71462;SDS011;59266;52.608;13.260;2023-08-06T10:35:27;14.85;;;9.45;;
71462;SDS011;59266;52.608;13.260;2023-08-06T10:37:58;14.65;;;9.40;;
71462;SDS011;59266;52.608;13.260;2023-08-06T10:40:29;16.67;;;9.60;;
71462;SDS011;59266;52.608;13.260;2023-08-06T10:43:00;15.25;;;8.68;;
71462;SDS011;59266;52.608;13.260;2023-08-06T10:45:28;13.80;;;9.00;;
71462;SDS011;59266;52.608;13.260;2023-08-06T10:47:56;14.70;;;9.85;;
71462;SDS011;59266;52.608;13.260;2023-08-06T10:50:24;15.80;;;8.90;;
71462;SDS011;59266;52.608;13.260;2023-08-06T10:52:51;14.02;;;9.13;;
71462;SDS011;59266;52.608;13.260;2023-08-06T10:57:52;14.23;;;9.05;;
71462;SDS011;59266;52.608;13.260;2023-08-06T11:00:20;13.02;;;8.43;;
71462;SDS011;59266;52.608;13.260;2023-08-06T11:02:53;21.33;;;10.50;;
71462;SDS011;59266;52.608;13.260;2023-08-06T11:05:20;17.20;;;9.90;;
71462;SDS011;59266;52.608;13.260;2023-08-06T11:07:46;14.38;;;9.77;;
71462;SDS011;59266;52.608;13.260;2023-08-06T11:10:15;13.82;;;9.15;;
71462;SDS011;59266;52.608;13.260;2023-08-06T11:12:42;13.88;;;8.00;;
71462;SDS011;59266;52.608;13.260;2023-08-06T11:15:09;12.02;;;8.00;;
71462;SDS011;59266;52.608;13.260;2023-08-06T11:17:41;11.70;;;7.82;;
71462;SDS011;59266;52.608;13.260;2023-08-06T11:20:08;11.70;;;7.43;;
71462;SDS011;59266;52.608;13.260;2023-08-06T11:22:36;13.93;;;8.60;;
71462;SDS011;59266;52.608;13.260;2023-08-06T11:25:02;13.32;;;9.07;;
71462;SDS011;59266;52.608;13.260;2023-08-06T11:27:29;12.98;;;8.48;;
71462;SDS011;59266;52.608;13.260;2023-08-06T11:29:56;13.20;;;8.50;;
71462;SDS011;59266;52.608;13.260;2023-08-06T11:32:23;13.43;;;8.18;;
71462;SDS011;59266;52.608;13.260;2023-08-06T11:34:52;12.20;;;8.05;;
71462;SDS011;59266;52.608;13.260;2023-08-06T11:37:21;13.30;;;8.63;;
71462;SDS011;59266;52.608;13.260;2023-08-06T11:39:50;16.17;;;9.05;;
71462;SDS011;59266;52.608;13.260;2023-08-06T11:42:17;15.30;;;8.57;;
71462;SDS011;59266;52.608;13.260;2023-08-06T11:44:45;16.00;;;8.82;;
71462;SDS011;59266;52.608;13.260;2023-08-06T11:47:16;18.27;;;9.70;;
71462;SDS011;59266;52.608;13.260;2023-08-06T11:49:47;15.10;;;9.23;;
71462;SDS011;59266;52.608;13.260;2023-08-06T11:52:18;14.02;;;9.38;;
71462;SDS011;59266;52.608;13.260;2023-08-06T11:55:08;16.23;;;9.30;;
71462;SDS011;59266;52.608;13.260;2023-08-06T11:57:38;14.73;;;9.05;;
71462;SDS011;59266;52.608;13.260;2023-08-06T12:00:09;14.48;;;9.30;;
71462;SDS011;59266;52.608;13.260;2023-08-06T12:02:40;16.38;;;9.15;;
71462;SDS011;59266;52.608;13.260;2023-08-06T12:05:18;15.15;;;9.07;;
71462;SDS011;59266;52.608;13.260;2023-08-06T12:07:50;15.60;;;9.27;;
71462;SDS011;59266;52.608;13.260;2023-08-06T12:10:19;15.15;;;9.73;;
71462;SDS011;59266;52.608;13.260;2023-08-06T12:12:46;16.38;;;9.60;;
71462;SDS011;59266;52.608;13.260;2023-08-06T12:15:13;15.07;;;9.52;;
71462;SDS011;59266;52.608;13.260;2023-08-06T12:17:40;17.55;;;10.25;;
71462;SDS011;59266;52.608;13.260;2023-08-06T12:20:07;17.33;;;9.82;;
71462;SDS011;59266;52.608;13.260;2023-08-06T12:22:34;17.05;;;10.32;;
71462;SDS011;59266;52.608;13.260;2023-08-06T12:25:02;16.25;;;9.95;;
71462;SDS011;59266;52.608;13.260;2023-08-06T12:27:30;15.05;;;9.88;;
71462;SDS011;59266;52.608;13.260;2023-08-06T12:29:56;18.27;;;10.63;;
71462;SDS011;59266;52.608;13.260;2023-08-06T12:32:23;15.63;;;9.57;;
71462;SDS011;59266;52.608;13.260;2023-08-06T12:34:49;14.48;;;9.05;;
71462;SDS011;59266;52.608;13.260;2023-08-06T12:37:18;15.38;;;9.10;;
71462;SDS011;59266;52.608;13.260;2023-08-06T12:39:45;15.98;;;9.30;;
71462;SDS011;59266;52.608;13.260;2023-08-06T12:42:12;15.02;;;9.05;;
71462;SDS011;59266;52.608;13.260;2023-08-06T12:44:39;15.18;;;9.13;;
71462;SDS011;59266;52.608;13.260;2023-08-06T12:47:09;14.90;;;9.07;;
71462;SDS011;59266;52.608;13.260;2023-08-06T12:49:36;15.85;;;9.18;;
71462;SDS011;59266;52.608;13.260;2023-08-06T12:52:02;13.82;;;8.38;;
71462;SDS011;59266;52.608;13.260;2023-08-06T12:54:32;15.70;;;8.95;;
71462;SDS011;59266;52.608;13.260;2023-08-06T12:57:05;12.52;;;8.40;;
71462;SDS011;59266;52.608;13.260;2023-08-06T12:59:36;14.30;;;7.85;;
71462;SDS011;59266;52.608;13.260;2023-08-06T13:02:03;13.20;;;7.90;;
71462;SDS011;59266;52.608;13.260;2023-08-06T13:04:30;13.32;;;8.18;;
71462;SDS011;59266;52.608;13.260;2023-08-06T13:06:57;16.77;;;7.65;;
71462;SDS011;59266;52.608;13.260;2023-08-06T13:09:24;13.05;;;8.30;;
71462;SDS011;59266;52.608;13.260;2023-08-06T13:11:54;14.23;;;9.00;;
71462;SDS011;59266;52.608;13.260;2023-08-06T13:14:21;16.30;;;10.15;;
71462;SDS011;59266;52.608;13.260;2023-08-06T13:16:48;15.63;;;8.25;;
71462;SDS011;59266;52.608;13.260;2023-08-06T13:19:15;12.88;;;7.63;;
71462;SDS011;59266;52.608;13.260;2023-08-06T13:24:08;16.42;;;8.48;;
71462;SDS011;59266;52.608;13.260;2023-08-06T13:26:36;14.80;;;7.85;;
71462;SDS011;59266;52.608;13.260;2023-08-06T13:29:02;13.38;;;8.25;;
71462;SDS011;59266;52.608;13.260;2023-08-06T13:31:29;15.70;;;7.60;;
71462;SDS011;59266;52.608;13.260;2023-08-06T13:33:56;15.15;;;8.52;;
71462;SDS011;59266;52.608;13.260;2023-08-06T13:36:25;13.63;;;8.00;;
71462;SDS011;59266;52.608;13.260;2023-08-06T13:38:52;13.63;;;7.03;;
71462;SDS011;59266;52.608;13.260;2023-08-06T13:41:19;13.85;;;7.38;;
71462;SDS011;59266;52.608;13.260;2023-08-06T13:43:46;12.93;;;7.80;;
71462;SDS011;59266;52.608;13.260;2023-08-06T13:46:13;12.63;;;7.35;;
71462;SDS011;59266;52.608;13.260;2023-08-06T13:48:45;13.25;;;7.65;;
71462;SDS011;59266;52.608;13.260;2023-08-06T13:51:12;13.57;;;7.70;;
71462;SDS011;59266;52.608;13.260;2023-08-06T13:53:40;13.43;;;7.35;;
71462;SDS011;59266;52.608;13.260;2023-08-06T13:56:08;12.77;;;6.47;;
71462;SDS011;59266;52.608;13.260;2023-08-06T13:58:38;10.85;;;6.70;;
71462;SDS011;59266;52.608;13.260;2023-08-06T14:01:05;12.80;;;6.00;;
71462;SDS011;59266;52.608;13.260;2023-08-06T14:03:32;13.48;;;6.40;;
71462;SDS011;59266;52.608;13.260;2023-08-06T14:05:59;13.68;;;6.00;;
71462;SDS011;59266;52.608;13.260;2023-08-06T14:08:26;9.07;;;4.78;;
71462;SDS011;59266;52.608;13.260;2023-08-06T14:10:52;7.82;;;4.00;;
71462;SDS011;59266;52.608;13.260;2023-08-06T14:13:21;8.55;;;3.90;;
71462;SDS011;59266;52.608;13.260;2023-08-06T14:15:47;9.45;;;3.95;;
71462;SDS011;59266;52.608;13.260;2023-08-06T14:18:15;8.27;;;3.60;;
71462;SDS011;59266;52.608;13.260;2023-08-06T14:20:42;9.98;;;4.22;;
71462;SDS011;59266;52.608;13.260;2023-08-06T14:23:10;9.43;;;4.00;;
71462;SDS011;59266;52.608;13.260;2023-08-06T14:25:37;8.05;;;4.10;;
71462;SDS011;59266;52.608;13.260;2023-08-06T14:28:05;9.68;;;3.58;;
71462;SDS011;59266;52.608;13.260;2023-08-06T14:30:33;7.82;;;3.60;;
71462;SDS011;59266;52.608;13.260;2023-08-06T14:33:01;7.45;;;3.63;;
71462;SDS011;59266;52.608;13.260;2023-08-06T14:35:48;6.50;;;3.13;;
71462;SDS011;59266;52.608;13.260;2023-08-06T14:38:14;9.00;;;3.13;;
71462;SDS011;59266;52.608;13.260;2023-08-06T14:40:42;9.40;;;3.88;;